Fentress, Mississippi
Current Conditions -  °F | °C
As of 8:55 PM on Friday 31 Oct 2014 (Local Time) from KSTF Reporting Station
Clear Clear  
Wind Chill: 42°   Ceiling: Unl
Heat Index: 46°   Visibility: 10mi
Dew Point: 25°   Wind: 9mph
Humidity: 43%   Direction: 350°N
Pressure: 30.22"   Gusts: 21mph
Location:  33.3679°N, 89.2097°W
Report Text: KSTF 010155Z AUTO 35008G18KT 10SM CLR 08/M04 A3022 RMK AO2
Loading
Personal Weather Stations






























Interactive Weather Map
Tropical Storm Tracking
New forecast layout! Learn more

10-Day Weather Forecast

Advertisements
Track Severe Weather on mobile